createdAt,value
2018-09-03T00:01:48.599Z,19.94
2018-09-03T00:02:48.597Z,19.95
2018-09-03T00:04:40.516Z,19.97
2018-09-03T00:05:40.525Z,19.90
2018-09-03T00:07:32.473Z,19.87
2018-09-03T00:08:32.467Z,19.86
2018-09-03T00:10:24.414Z,19.88
2018-09-03T00:11:24.400Z,19.91
2018-09-03T00:13:16.322Z,19.91
2018-09-03T00:14:16.336Z,19.93
2018-09-03T00:16:08.276Z,19.94
2018-09-03T00:17:08.273Z,19.95
2018-09-03T00:19:00.190Z,19.95
2018-09-03T00:20:00.202Z,19.97
2018-09-03T00:21:52.142Z,19.95
2018-09-03T00:22:52.136Z,19.95
2018-09-03T00:24:44.055Z,20.02
2018-09-03T00:25:44.065Z,20.02
2018-09-03T00:27:36.007Z,19.95
2018-09-03T00:28:36.001Z,19.95
2018-09-03T00:30:27.960Z,19.93
2018-09-03T00:31:27.941Z,19.94
2018-09-03T00:33:19.868Z,20.00
2018-09-03T00:34:19.880Z,19.93
2018-09-03T00:36:11.821Z,20.05
2018-09-03T00:37:11.817Z,19.90
2018-09-03T00:39:03.735Z,20.00
2018-09-03T00:40:03.746Z,19.98
2018-09-03T00:41:55.691Z,20.03
2018-09-03T00:42:55.685Z,20.03
2018-09-03T00:44:47.601Z,20.05
2018-09-03T00:45:47.618Z,19.98
2018-09-03T00:47:39.556Z,19.95
2018-09-03T00:48:39.551Z,19.95
2018-09-03T00:50:31.470Z,20.02
2018-09-03T00:51:31.485Z,19.88
2018-09-03T00:53:23.429Z,19.88
2018-09-03T00:54:23.422Z,19.84
2018-09-03T00:56:15.364Z,19.97
2018-09-03T00:57:15.363Z,19.93
2018-09-03T00:59:07.274Z,19.94
2018-09-03T01:00:07.288Z,19.95
2018-09-03T01:01:59.225Z,19.91
2018-09-03T01:02:59.219Z,19.87
2018-09-03T01:04:51.144Z,19.91
2018-09-03T01:05:51.158Z,19.80
2018-09-03T01:07:43.096Z,19.80
2018-09-03T01:08:43.093Z,19.87
2018-09-03T01:10:35.013Z,19.79
2018-09-03T01:11:35.030Z,19.86
2018-09-03T01:13:26.967Z,19.80
2018-09-03T01:14:26.960Z,19.72
2018-09-03T01:16:18.884Z,19.75
2018-09-03T01:17:18.895Z,19.76
2018-09-03T01:19:10.841Z,19.76
2018-09-03T01:20:10.833Z,19.69
2018-09-03T01:22:02.775Z,19.69
2018-09-03T01:23:02.774Z,19.58
2018-09-03T01:24:54.691Z,19.69
2018-09-03T01:25:54.708Z,19.73
2018-09-03T01:27:46.648Z,19.60
2018-09-03T01:28:46.642Z,19.63
2018-09-03T01:30:38.563Z,19.65
2018-09-03T01:31:38.576Z,19.61
2018-09-03T01:33:30.517Z,19.58
2018-09-03T01:34:30.513Z,19.53
2018-09-03T01:36:22.433Z,19.48
2018-09-03T01:37:22.446Z,19.50
2018-09-03T01:39:14.390Z,19.48
2018-09-03T01:40:14.382Z,19.53
2018-09-03T01:42:06.323Z,19.50
2018-09-03T01:43:06.317Z,19.50
2018-09-03T01:44:58.240Z,19.35
2018-09-03T01:45:58.250Z,19.38
2018-09-03T01:47:50.192Z,19.36
2018-09-03T01:48:50.193Z,19.32
2018-09-03T01:50:42.113Z,19.33
2018-09-03T01:51:42.121Z,19.33
2018-09-03T01:53:34.070Z,19.35
2018-09-03T01:54:34.066Z,19.32
2018-09-03T01:56:25.979Z,19.33
2018-09-03T01:57:25.994Z,19.32
2018-09-03T01:59:17.932Z,19.33
2018-09-03T02:00:17.929Z,19.32
2018-09-03T02:02:09.887Z,19.38
2018-09-03T02:03:09.872Z,19.33
2018-09-03T02:05:01.789Z,19.36
2018-09-03T02:06:01.806Z,19.33
2018-09-03T02:07:53.741Z,19.32
2018-09-03T02:08:53.740Z,19.31
2018-09-03T02:10:45.657Z,19.39
2018-09-03T02:11:45.670Z,19.42
2018-09-03T02:13:37.806Z,19.40
2018-09-03T02:14:37.799Z,19.40
2018-09-03T02:16:29.718Z,19.43
2018-09-03T02:17:29.730Z,19.42
2018-09-03T02:19:21.672Z,19.35
2018-09-03T02:20:21.667Z,19.38
2018-09-03T02:22:13.587Z,19.33
2018-09-03T02:23:13.600Z,19.25
2018-09-03T02:25:05.539Z,19.46
2018-09-03T02:26:05.534Z,19.43
2018-09-03T02:27:57.670Z,19.46
2018-09-03T02:28:57.661Z,19.55
2018-09-03T02:30:49.585Z,19.47
2018-09-03T02:31:49.603Z,19.53
2018-09-03T02:33:41.541Z,19.57
2018-09-03T02:34:41.535Z,19.57
2018-09-03T02:36:33.456Z,19.57
2018-09-03T02:37:33.467Z,19.50
2018-09-03T02:39:25.408Z,19.48
2018-09-03T02:40:25.404Z,19.40
2018-09-03T02:42:17.320Z,19.35
2018-09-03T02:43:17.344Z,19.24
2018-09-03T02:45:09.269Z,19.17
2018-09-03T02:46:09.264Z,19.17
2018-09-03T02:48:01.205Z,19.21
2018-09-03T02:49:01.200Z,19.14
2018-09-03T02:50:53.114Z,19.08
2018-09-03T02:51:53.127Z,19.15
2018-09-03T02:53:45.064Z,19.02
2018-09-03T02:54:45.061Z,18.99
2018-09-03T02:56:36.979Z,19.06
2018-09-03T02:57:36.990Z,19.02
2018-09-03T02:59:28.931Z,19.13
2018-09-03T03:00:28.926Z,19.15
2018-09-03T03:02:20.850Z,19.15
2018-09-03T03:03:20.864Z,19.29
2018-09-03T03:05:12.802Z,19.24
2018-09-03T03:06:12.801Z,19.28
2018-09-03T03:08:04.716Z,19.36
2018-09-03T03:39:02.989Z,19.15
2018-09-03T03:40:02.978Z,19.17
2018-09-03T03:41:54.884Z,19.05
2018-09-03T03:42:54.893Z,19.02
2018-09-03T03:44:46.829Z,18.99
2018-09-03T03:45:46.820Z,18.84
2018-09-03T03:47:38.731Z,18.92
2018-09-03T03:48:38.789Z,18.83
2018-09-03T03:50:30.674Z,18.97
2018-09-03T03:51:30.666Z,18.91
2018-09-03T03:53:22.597Z,19.01
2018-09-03T03:54:22.594Z,19.06
2018-09-03T03:56:14.528Z,19.02
2018-09-03T03:57:14.527Z,19.01
2018-09-03T03:59:06.461Z,19.15
2018-09-03T04:00:06.455Z,19.02
2018-09-03T04:01:58.372Z,19.14
2018-09-03T04:02:58.387Z,19.02
2018-09-03T04:04:50.323Z,19.02
2018-09-03T04:05:50.319Z,19.02
2018-09-03T04:07:42.238Z,19.13
2018-09-03T04:08:42.259Z,19.11
2018-09-03T04:10:34.189Z,19.10
2018-09-03T04:11:34.183Z,19.02
2018-09-03T04:13:26.100Z,19.14
2018-09-03T04:14:26.118Z,19.10
2018-09-03T04:16:18.054Z,19.13
2018-09-03T04:17:18.051Z,19.10
2018-09-03T04:19:09.965Z,19.11
2018-09-03T04:20:09.980Z,19.17
2018-09-03T04:22:01.917Z,19.13
2018-09-03T04:23:02.020Z,19.01
2018-09-03T04:24:53.858Z,19.10
2018-09-03T04:25:53.845Z,19.06
2018-09-03T04:27:45.765Z,19.01
2018-09-03T04:28:45.843Z,19.02
2018-09-03T04:30:37.723Z,19.05
2018-09-03T04:31:37.720Z,19.10
2018-09-03T04:33:29.636Z,19.02
2018-09-03T04:34:29.648Z,19.10
2018-09-03T04:36:21.586Z,18.99
2018-09-03T04:37:21.580Z,19.02
2018-09-03T04:39:13.497Z,18.99
2018-09-03T04:40:13.515Z,19.01
2018-09-03T04:42:05.453Z,18.84
2018-09-03T04:43:05.446Z,18.95
2018-09-03T04:44:57.384Z,18.90
2018-09-03T04:45:57.378Z,18.94
2018-09-03T04:47:49.473Z,18.94
2018-09-03T04:48:49.314Z,18.92
2018-09-03T04:50:41.255Z,18.83
2018-09-03T04:51:41.249Z,18.92
2018-09-03T04:53:33.167Z,18.90
2018-09-03T04:54:33.188Z,18.83
2018-09-03T04:56:25.118Z,18.97
2018-09-03T04:57:25.113Z,18.95
2018-09-03T04:59:17.031Z,18.86
2018-09-03T05:00:17.045Z,18.83
2018-09-03T05:02:08.981Z,18.86
2018-09-03T05:03:08.976Z,18.91
2018-09-03T05:05:01.005Z,18.94
2018-09-03T05:06:01.012Z,18.98
2018-09-03T05:07:53.007Z,18.87
2018-09-03T05:08:53.022Z,18.91
2018-09-03T05:10:44.974Z,18.95
2018-09-03T05:11:44.983Z,18.99
2018-09-03T05:13:36.974Z,18.92
2018-09-03T05:14:36.985Z,18.94
2018-09-03T05:16:29.016Z,18.92
2018-09-03T05:17:29.012Z,18.82
2018-09-03T05:19:21.028Z,18.90
2018-09-03T05:20:21.044Z,18.82
2018-09-03T05:22:12.998Z,18.79
2018-09-03T05:23:12.993Z,18.83
2018-09-03T05:25:05.082Z,18.95
2018-09-03T05:26:05.018Z,18.82
2018-09-03T05:27:56.981Z,18.99
2018-09-03T05:28:57.046Z,18.95
2018-09-03T05:30:49.098Z,18.98
2018-09-03T05:31:48.987Z,18.97
2018-09-03T05:33:41.001Z,18.95
2018-09-03T05:34:41.017Z,18.94
2018-09-03T05:36:32.961Z,18.91
2018-09-03T05:37:32.949Z,18.92
2018-09-03T05:39:24.871Z,18.97
2018-09-03T05:40:24.885Z,18.95
2018-09-03T05:42:16.825Z,18.92
2018-09-03T05:43:16.909Z,18.98
2018-09-03T05:45:08.732Z,18.98
2018-09-03T05:46:08.749Z,19.02
2018-09-03T05:48:00.693Z,19.02
2018-09-03T05:49:00.686Z,19.05
2018-09-03T05:50:52.622Z,18.98
2018-09-03T05:51:52.646Z,19.13
2018-09-03T05:53:44.531Z,19.02
2018-09-03T05:54:44.543Z,19.02
2018-09-03T05:56:36.486Z,19.15
2018-09-03T05:57:36.475Z,19.11
2018-09-03T05:59:28.397Z,19.14
2018-09-03T06:00:28.407Z,19.17
2018-09-03T06:02:20.347Z,19.17
2018-09-03T06:03:20.342Z,19.15
2018-09-03T06:05:12.261Z,19.18
2018-09-03T06:06:12.277Z,19.21
2018-09-03T06:08:04.211Z,19.21
2018-09-03T06:09:04.207Z,19.24
2018-09-03T06:10:56.162Z,19.23
2018-09-03T06:11:56.144Z,19.29
2018-09-03T06:13:48.081Z,19.29
2018-09-03T06:14:48.078Z,19.38
2018-09-03T06:16:40.021Z,19.33
2018-09-03T06:17:40.018Z,19.42
2018-09-03T06:19:31.936Z,19.42
2018-09-03T06:20:31.948Z,19.50
2018-09-03T06:22:23.894Z,19.55
2018-09-03T06:23:23.896Z,19.47
2018-09-03T06:25:15.826Z,19.47
2018-09-03T06:26:15.837Z,19.55
2018-09-03T06:28:07.781Z,19.73
2018-09-03T06:29:07.774Z,19.88
2018-09-03T06:30:59.702Z,19.91
2018-09-03T06:31:59.708Z,19.87
2018-09-03T06:33:51.648Z,19.83
2018-09-03T06:34:51.639Z,19.90
2018-09-03T06:36:43.586Z,19.84
2018-09-03T06:37:43.594Z,19.90
2018-09-03T06:39:35.495Z,20.00
2018-09-03T06:40:35.514Z,20.02
2018-09-03T06:42:27.455Z,19.98
2018-09-03T06:43:27.468Z,20.13
2018-09-03T06:45:19.370Z,20.10
2018-09-03T06:46:19.385Z,20.16
2018-09-03T06:48:11.326Z,20.13
2018-09-03T06:49:11.322Z,20.21
2018-09-03T06:51:03.259Z,20.23
2018-09-03T06:52:03.257Z,20.33
2018-09-03T06:53:55.197Z,20.25
2018-09-03T06:54:55.275Z,20.15
2018-09-03T06:56:47.753Z,20.20
2018-09-03T06:57:47.724Z,20.30
2018-09-03T06:59:39.653Z,20.42
2018-09-03T07:00:39.625Z,20.51
2018-09-03T07:02:31.654Z,20.61
2018-09-03T07:03:31.526Z,20.53
2018-09-03T07:05:23.480Z,20.62
2018-09-03T07:06:23.486Z,20.77
2018-09-03T07:08:15.427Z,20.71
2018-09-03T07:09:15.439Z,20.65
2018-09-03T07:11:07.285Z,20.66
2018-09-03T07:12:07.312Z,20.76
2018-09-03T07:13:59.242Z,20.69
2018-09-03T07:14:59.235Z,20.71
2018-09-03T07:16:51.194Z,20.64
2018-09-03T07:17:51.173Z,20.64
2018-09-03T07:19:43.106Z,20.53
2018-09-03T07:20:43.123Z,20.64
2018-09-03T07:22:35.064Z,20.61
2018-09-03T07:23:35.072Z,20.68
2018-09-03T07:25:26.978Z,20.72
2018-09-03T07:26:27.003Z,20.81
2018-09-03T07:28:19.080Z,20.98
2018-09-03T07:29:18.965Z,20.91
2018-09-03T07:31:10.870Z,20.95
2018-09-03T07:32:10.918Z,20.93
2018-09-03T07:34:02.849Z,20.96
2018-09-03T07:35:02.885Z,20.93
2018-09-03T07:36:54.765Z,20.98
2018-09-03T07:37:54.809Z,20.95
2018-09-03T07:39:46.729Z,20.90
2018-09-03T07:40:46.735Z,20.91
2018-09-03T07:42:38.676Z,20.80
2018-09-03T07:43:38.679Z,20.81
2018-09-03T07:45:30.589Z,20.79
2018-09-03T07:46:30.604Z,20.65
2018-09-03T07:48:22.596Z,20.58
2018-09-03T07:49:22.551Z,20.39
2018-09-03T07:51:14.466Z,20.30
2018-09-03T07:52:14.485Z,20.43
2018-09-03T07:54:06.429Z,20.28
2018-09-03T07:55:06.476Z,20.31
2018-09-03T07:56:58.340Z,20.24
2018-09-03T07:57:58.370Z,20.33
2018-09-03T07:59:50.300Z,20.21
2018-09-03T08:00:50.295Z,20.18
2018-09-03T08:02:42.243Z,20.28
2018-09-03T08:03:42.253Z,20.20
2018-09-03T08:05:34.164Z,20.18
2018-09-03T08:06:34.176Z,20.20
2018-09-03T08:08:26.129Z,20.21
2018-09-03T08:09:26.115Z,20.21
2018-09-03T08:11:18.043Z,20.12
2018-09-03T08:12:18.056Z,20.16
2018-09-03T08:14:10.012Z,20.20
2018-09-03T08:15:10.010Z,20.16
2018-09-03T08:17:01.930Z,20.20
2018-09-03T08:18:01.946Z,20.13
2018-09-03T08:19:53.889Z,20.15
2018-09-03T08:20:53.885Z,20.20
2018-09-03T08:22:45.814Z,20.25
2018-09-03T08:23:45.811Z,20.21
2018-09-03T08:25:37.736Z,20.28
2018-09-03T08:26:37.746Z,20.35
2018-09-03T08:28:29.685Z,20.46
2018-09-03T08:29:29.676Z,20.49
2018-09-03T08:31:21.595Z,20.43
2018-09-03T08:32:21.609Z,20.50
2018-09-03T08:34:13.546Z,20.56
2018-09-03T08:35:13.550Z,20.58
2018-09-03T08:37:05.468Z,20.72
2018-09-03T08:38:05.481Z,20.66
2018-09-03T08:39:57.425Z,20.74
2018-09-03T08:40:57.416Z,20.62
2018-09-03T08:42:49.349Z,20.58
2018-09-03T08:43:49.349Z,20.65
2018-09-03T08:45:41.364Z,20.53
2018-09-03T08:46:41.388Z,20.53
2018-09-03T08:48:33.413Z,20.42
2018-09-03T08:49:33.404Z,20.38
2018-09-03T08:51:25.338Z,20.42
2018-09-03T08:52:25.350Z,20.38
2018-09-03T08:54:17.306Z,20.46
2018-09-03T08:55:17.301Z,20.33
2018-09-03T08:57:09.220Z,20.23
2018-09-03T08:58:09.248Z,20.15
2018-09-03T09:00:01.214Z,19.93
2018-09-03T09:01:01.183Z,19.91
2018-09-03T09:02:53.126Z,19.93
2018-09-03T09:03:53.121Z,19.80
2018-09-03T09:05:45.121Z,19.87
2018-09-03T09:06:45.046Z,19.93
2018-09-03T09:08:37.009Z,19.88
2018-09-03T09:09:36.986Z,19.93
2018-09-03T09:11:29.096Z,19.94
2018-09-03T09:12:29.141Z,19.87
2018-09-03T09:14:21.064Z,19.75
2018-09-03T09:15:21.052Z,19.73
2018-09-03T09:17:12.973Z,19.90
2018-09-03T09:18:12.987Z,19.87
2018-09-03T09:20:04.924Z,19.94
2018-09-03T09:21:04.922Z,19.95
2018-09-03T09:22:57.045Z,19.97
2018-09-03T09:23:57.052Z,20.05
2018-09-03T09:25:49.006Z,20.05
2018-09-03T09:26:48.985Z,20.05
2018-09-03T09:28:40.930Z,20.03
2018-09-03T09:29:40.925Z,19.88
2018-09-03T09:31:33.044Z,19.86
2018-09-03T09:32:33.052Z,19.80
2018-09-03T09:34:25.024Z,19.75
2018-09-03T09:35:25.016Z,19.76
2018-09-03T09:37:17.010Z,19.68
2018-09-03T09:38:17.016Z,19.84
2018-09-03T09:40:08.966Z,19.95
2018-09-03T09:41:08.966Z,19.93
2018-09-03T09:43:00.902Z,20.08
2018-09-03T09:44:00.983Z,20.23
2018-09-03T09:45:52.835Z,20.24
2018-09-03T09:46:52.832Z,20.31
2018-09-03T09:48:44.767Z,20.46
2018-09-03T09:49:44.782Z,20.61
2018-09-03T09:51:36.690Z,20.80
2018-09-03T09:52:36.698Z,20.83
2018-09-03T09:54:28.633Z,20.90
2018-09-03T09:55:28.628Z,20.76
2018-09-03T09:57:20.552Z,20.93
2018-09-03T09:58:20.570Z,20.89
2018-09-03T10:00:12.511Z,20.77
2018-09-03T10:01:12.505Z,20.90
2018-09-03T10:03:04.429Z,20.86
2018-09-03T10:04:04.449Z,20.96
2018-09-03T10:05:56.388Z,20.96
2018-09-03T10:06:56.385Z,20.96
2018-09-03T10:08:48.323Z,21.08
2018-09-03T10:09:48.318Z,21.09
2018-09-03T10:11:40.250Z,21.01
2018-09-03T10:12:40.262Z,21.04
2018-09-03T10:14:32.221Z,21.06
2018-09-03T10:15:32.202Z,21.16
2018-09-03T10:17:24.127Z,21.19
2018-09-03T10:18:24.143Z,21.19
2018-09-03T10:20:16.086Z,21.26
2018-09-03T10:21:16.080Z,21.20
2018-09-03T10:23:08.025Z,21.13
2018-09-03T10:24:08.029Z,21.06
2018-09-03T10:25:59.967Z,21.04
2018-09-03T10:26:59.980Z,20.95
2018-09-03T10:28:51.912Z,20.84
2018-09-03T10:29:51.905Z,20.80
2018-09-03T10:31:43.898Z,20.86
2018-09-03T10:32:43.856Z,20.89
2018-09-03T10:34:35.801Z,21.06
2018-09-03T10:35:35.791Z,21.02
2018-09-03T10:37:27.744Z,21.19
2018-09-03T10:38:27.740Z,21.23
2018-09-03T10:40:19.679Z,21.39
2018-09-03T10:41:19.674Z,21.35
2018-09-03T10:43:11.599Z,21.35
2018-09-03T10:44:11.620Z,21.36
2018-09-03T10:46:03.558Z,21.38
2018-09-03T10:47:03.617Z,21.21
2018-09-03T10:48:55.503Z,21.16
2018-09-03T10:49:55.495Z,21.19
2018-09-03T10:51:47.433Z,21.16
2018-09-03T10:52:47.444Z,21.19
2018-09-03T10:54:39.387Z,21.13
2018-09-03T10:55:39.391Z,21.13
2018-09-03T10:57:31.328Z,21.04
2018-09-03T10:58:31.326Z,20.95
2018-09-03T11:00:23.490Z,20.98
2018-09-03T11:01:23.465Z,20.91
2018-09-03T11:03:15.409Z,20.99
2018-09-03T11:04:15.404Z,20.89
2018-09-03T11:06:07.327Z,20.96
2018-09-03T11:07:07.346Z,21.02
2018-09-03T11:08:59.280Z,21.11
2018-09-03T11:09:59.278Z,21.06
2018-09-03T11:11:51.248Z,21.24
2018-09-03T11:12:51.215Z,21.32
2018-09-03T11:14:43.155Z,21.54
2018-09-03T11:15:43.160Z,21.57
2018-09-03T11:17:35.081Z,21.69
2018-09-03T11:18:35.098Z,21.69
2018-09-03T11:20:27.033Z,21.66
2018-09-03T11:21:27.106Z,21.54
2018-09-03T11:23:18.949Z,21.71
2018-09-03T11:24:18.962Z,21.67
2018-09-03T11:26:10.907Z,21.75
2018-09-03T11:27:10.902Z,21.67
2018-09-03T11:29:02.816Z,21.76
2018-09-03T11:30:02.836Z,21.88
2018-09-03T11:31:54.799Z,21.83
2018-09-03T11:32:54.795Z,21.82
2018-09-03T11:34:46.834Z,22.04
2018-09-03T11:35:46.825Z,22.12
2018-09-03T11:37:38.840Z,22.31
2018-09-03T11:38:38.861Z,22.34
2018-09-03T11:40:30.802Z,22.50
2018-09-03T11:41:30.796Z,22.56
2018-09-03T11:43:22.718Z,23.04
2018-09-03T11:44:22.764Z,23.22
2018-09-03T11:46:15.172Z,23.39
2018-09-03T11:47:15.209Z,23.53
2018-09-03T11:49:07.105Z,23.82
2018-09-03T11:50:07.270Z,23.72
2018-09-03T11:51:59.063Z,23.80
2018-09-03T11:52:59.062Z,23.76
2018-09-03T11:54:51.006Z,23.70
2018-09-03T11:55:51.002Z,23.76
2018-09-03T11:57:42.925Z,23.64
2018-09-03T11:58:42.942Z,23.76
2018-09-03T12:00:34.897Z,23.65
2018-09-03T12:01:34.885Z,23.75
2018-09-03T12:03:26.824Z,23.49
2018-09-03T12:04:26.835Z,23.58
2018-09-03T12:06:18.871Z,23.42
2018-09-03T12:07:18.866Z,23.42
2018-09-03T12:09:10.886Z,23.45
2018-09-03T12:10:10.899Z,23.40
2018-09-03T12:12:02.849Z,23.19
2018-09-03T12:13:02.847Z,23.27
2018-09-03T12:14:54.796Z,23.42
2018-09-03T12:15:54.794Z,23.31
2018-09-03T12:17:46.719Z,23.43
2018-09-03T12:18:46.739Z,23.58
2018-09-03T12:20:38.693Z,23.70
2018-09-03T12:21:38.693Z,23.82
2018-09-03T12:23:30.626Z,23.92
2018-09-03T12:24:30.634Z,24.07
2018-09-03T12:26:22.582Z,24.13
2018-09-03T12:27:22.580Z,24.38
2018-09-03T12:29:14.506Z,24.54
2018-09-03T12:30:14.536Z,24.44
2018-09-03T12:32:06.477Z,24.44
2018-09-03T12:33:06.474Z,24.53
2018-09-03T12:34:58.430Z,24.60
2018-09-03T12:35:58.422Z,24.75
2018-09-03T12:37:50.538Z,24.77
2018-09-03T12:38:50.567Z,24.49
2018-09-03T12:40:42.499Z,24.23
2018-09-03T12:41:42.553Z,24.35
2018-09-03T12:43:34.449Z,24.34
2018-09-03T12:44:34.465Z,24.39
2018-09-03T12:46:26.481Z,24.38
2018-09-03T12:47:26.418Z,24.24
2018-09-03T12:49:18.475Z,24.54
2018-09-03T12:50:18.526Z,24.56
2018-09-03T12:52:10.442Z,24.54
2018-09-03T12:53:10.443Z,24.67
2018-09-03T12:55:02.366Z,24.64
2018-09-03T12:56:02.384Z,24.76
2018-09-03T12:57:54.325Z,24.91
2018-09-03T12:58:54.328Z,24.88
2018-09-03T13:00:47.017Z,24.82
2018-09-03T13:01:46.957Z,24.39
2018-09-03T13:03:38.889Z,24.31
2018-09-03T13:04:38.910Z,24.12
2018-09-03T13:06:30.948Z,24.17
2018-09-03T13:07:30.864Z,24.26
2018-09-03T13:09:23.019Z,24.49
2018-09-03T13:10:22.810Z,24.47
2018-09-03T13:12:14.744Z,24.82
2018-09-03T13:13:14.757Z,25.07
2018-09-03T13:15:06.756Z,25.32
2018-09-03T13:16:06.712Z,25.39
2018-09-03T13:17:58.642Z,25.00
2018-09-03T13:18:58.700Z,25.05
2018-09-03T13:20:50.635Z,25.07
2018-09-03T13:21:50.594Z,25.12
2018-09-03T13:23:42.536Z,25.28
2018-09-03T13:24:42.644Z,25.20
2018-09-03T13:26:34.515Z,25.02
2018-09-03T13:27:34.510Z,25.10
2018-09-03T13:29:26.436Z,25.10
2018-09-03T13:30:26.453Z,25.25
2018-09-03T13:32:18.401Z,25.49
2018-09-03T13:33:18.397Z,25.46
2018-09-03T13:35:10.326Z,25.56
2018-09-03T13:36:10.386Z,25.47
2018-09-03T13:38:02.292Z,25.32
2018-09-03T13:39:02.293Z,25.19
2018-09-03T13:40:54.237Z,25.37
2018-09-03T13:41:54.272Z,25.59
2018-09-03T13:43:46.161Z,25.72
2018-09-03T13:44:46.180Z,25.79
2018-09-03T13:46:38.130Z,25.65
2018-09-03T13:47:38.121Z,25.32
2018-09-03T13:49:30.052Z,25.27
2018-09-03T13:50:30.069Z,25.27
2018-09-03T13:52:22.011Z,24.92
2018-09-03T13:53:22.008Z,24.90
2018-09-03T13:55:13.998Z,24.71
2018-09-03T13:56:13.951Z,24.60
2018-09-03T13:58:05.922Z,24.38
2018-09-03T13:59:05.902Z,24.35
2018-09-03T14:00:57.847Z,24.38
2018-09-03T14:01:57.846Z,24.37
2018-09-03T14:03:49.776Z,24.32
2018-09-03T14:04:49.844Z,24.29
2018-09-03T14:06:41.750Z,24.26
2018-09-03T14:07:41.741Z,24.27
2018-09-03T14:09:33.675Z,24.27
2018-09-03T14:10:33.691Z,24.29
2018-09-03T14:12:25.641Z,24.39
2018-09-03T14:13:25.631Z,24.24
2018-09-03T14:15:17.567Z,24.39
2018-09-03T14:16:17.583Z,24.29
2018-09-03T14:18:09.539Z,24.10
2018-09-03T14:19:09.530Z,24.13
2018-09-03T14:21:01.487Z,24.22
2018-09-03T14:22:01.476Z,24.34
2018-09-03T14:23:53.404Z,24.49
2018-09-03T14:24:53.423Z,24.67
2018-09-03T14:26:45.370Z,24.56
2018-09-03T14:27:45.366Z,24.41
2018-09-03T14:29:37.299Z,24.44
2018-09-03T14:30:37.314Z,24.41
2018-09-03T14:32:29.266Z,24.50
2018-09-03T14:33:29.265Z,24.52
2018-09-03T14:35:21.202Z,24.67
2018-09-03T14:36:21.222Z,24.64
2018-09-03T14:38:13.171Z,24.68
2018-09-03T14:39:13.168Z,24.79
2018-09-03T14:41:05.098Z,25.09
2018-09-03T14:42:05.117Z,25.09
2018-09-03T14:43:57.063Z,25.06
2018-09-03T14:44:57.064Z,25.00
2018-09-03T14:46:49.010Z,25.02
2018-09-03T14:47:49.006Z,25.12
2018-09-03T14:49:41.029Z,25.10
2018-09-03T14:50:40.955Z,25.13
2018-09-03T14:52:32.901Z,25.27
2018-09-03T14:53:32.904Z,25.28
2018-09-03T14:55:24.830Z,25.46
2018-09-03T14:56:24.847Z,25.59
2018-09-03T14:58:16.801Z,25.43
2018-09-03T14:59:16.794Z,25.34
2018-09-03T15:01:08.719Z,25.47
2018-09-03T15:02:08.766Z,25.49
2018-09-03T15:04:00.729Z,25.62
2018-09-03T15:05:00.681Z,25.72
2018-09-03T15:06:52.632Z,25.80
2018-09-03T15:07:52.626Z,25.89
2018-09-03T15:09:44.557Z,25.93
2018-09-03T15:10:44.575Z,25.77
2018-09-03T15:12:36.524Z,25.83
2018-09-03T15:13:36.520Z,25.75
2018-09-03T15:15:28.449Z,25.67
2018-09-03T15:16:28.469Z,25.64
2018-09-03T15:18:20.418Z,25.42
2018-09-03T15:19:20.417Z,25.32
2018-09-03T15:21:12.536Z,25.20
2018-09-03T15:22:12.555Z,25.13
2018-09-03T15:24:04.500Z,25.06
2018-09-03T15:25:04.499Z,25.00
2018-09-03T15:26:56.453Z,24.95
2018-09-03T15:27:56.446Z,25.00
2018-09-03T15:29:48.378Z,25.00
2018-09-03T15:30:48.392Z,24.98
2018-09-03T15:32:40.338Z,24.69
2018-09-03T15:33:40.336Z,24.64
2018-09-03T15:35:32.270Z,24.77
2018-09-03T15:36:32.342Z,24.76
2018-09-03T15:38:24.233Z,24.79
2018-09-03T15:39:24.224Z,24.61
2018-09-03T15:41:16.153Z,24.56
2018-09-03T15:42:16.172Z,24.41
2018-09-03T15:44:08.117Z,24.42
2018-09-03T15:45:08.122Z,24.41
2018-09-03T15:47:00.059Z,24.37
2018-09-03T15:48:00.057Z,24.24
2018-09-03T15:49:51.992Z,24.17
2018-09-03T15:50:52.003Z,24.37
2018-09-03T15:52:43.948Z,24.41
2018-09-03T15:53:43.945Z,24.35
2018-09-03T15:55:35.867Z,24.35
2018-09-03T15:56:35.888Z,24.41
2018-09-03T15:58:27.833Z,24.29
2018-09-03T15:59:27.833Z,24.26
2018-09-03T16:01:19.756Z,24.26
2018-09-03T16:02:19.775Z,24.10
2018-09-03T16:04:11.721Z,24.10
2018-09-03T16:05:11.718Z,24.08
2018-09-03T16:07:03.666Z,24.05
2018-09-03T16:08:03.664Z,24.13
2018-09-03T16:09:55.589Z,24.24
2018-09-03T16:10:55.605Z,24.23
2018-09-03T16:12:47.556Z,24.31
2018-09-03T16:13:47.551Z,24.39
2018-09-03T16:15:39.478Z,24.29
2018-09-03T16:16:39.492Z,24.22
2018-09-03T16:18:31.446Z,24.26
2018-09-03T16:19:31.447Z,24.29
2018-09-03T16:21:23.370Z,24.14
2018-09-03T16:22:23.383Z,24.04
2018-09-03T16:24:15.326Z,23.97
2018-09-03T16:25:15.330Z,24.04
2018-09-03T16:27:07.272Z,23.97
2018-09-03T16:28:07.267Z,24.01
2018-09-03T16:29:59.214Z,24.00
2018-09-03T16:30:59.212Z,23.89
2018-09-03T16:32:51.155Z,23.77
2018-09-03T16:33:51.159Z,23.75
2018-09-03T16:35:43.089Z,23.85
2018-09-03T16:36:43.107Z,23.94
2018-09-03T16:38:35.059Z,23.76
2018-09-03T16:39:35.045Z,23.72
2018-09-03T16:41:26.965Z,23.86
2018-09-03T16:42:26.983Z,23.86
2018-09-03T16:44:18.935Z,23.75
2018-09-03T16:45:18.924Z,23.79
2018-09-03T16:47:10.859Z,23.79
2018-09-03T16:48:10.931Z,23.82
2018-09-03T16:50:02.820Z,23.79
2018-09-03T16:51:02.817Z,23.80
2018-09-03T16:52:54.758Z,23.75
2018-09-03T16:53:54.758Z,23.83
2018-09-03T16:55:46.685Z,23.72
2018-09-03T16:56:46.701Z,23.68
2018-09-03T16:58:38.649Z,23.61
2018-09-03T16:59:38.646Z,23.50
2018-09-03T17:01:30.801Z,23.42
2018-09-03T17:02:30.585Z,23.46
2018-09-03T17:04:22.537Z,23.60
2018-09-03T17:05:22.533Z,23.52
2018-09-03T17:07:14.458Z,23.50
2018-09-03T17:08:14.598Z,23.57
2018-09-03T17:10:06.422Z,23.49
2018-09-03T17:11:06.420Z,23.45
2018-09-03T17:12:58.358Z,23.43
2018-09-03T17:13:58.361Z,23.43
2018-09-03T17:15:50.288Z,23.27
2018-09-03T17:16:50.299Z,23.29
2018-09-03T17:18:42.249Z,23.34
2018-09-03T17:19:42.241Z,23.26
2018-09-03T17:21:34.370Z,23.42
2018-09-03T17:22:34.383Z,23.35
2018-09-03T17:24:26.323Z,23.43
2018-09-03T17:25:26.325Z,23.42
2018-09-03T17:27:18.249Z,23.38
2018-09-03T17:28:18.268Z,23.29
2018-09-03T17:30:10.210Z,23.15
2018-09-03T17:31:10.208Z,23.04
2018-09-03T17:33:02.151Z,22.99
2018-09-03T17:34:02.149Z,23.04
2018-09-03T17:35:54.085Z,22.97
2018-09-03T17:36:54.104Z,22.94
2018-09-03T17:38:46.039Z,22.99
2018-09-03T17:39:46.027Z,22.97
2018-09-03T17:41:37.958Z,22.90
2018-09-03T17:42:37.969Z,22.84
2018-09-03T17:44:29.914Z,22.83
2018-09-03T17:45:29.908Z,22.84
2018-09-03T17:47:21.840Z,22.90
2018-09-03T17:48:21.851Z,22.75
2018-09-03T17:50:13.806Z,22.74
2018-09-03T17:51:13.805Z,22.74
2018-09-03T17:53:05.751Z,22.75
2018-09-03T17:54:05.744Z,22.75
2018-09-03T17:55:57.675Z,22.57
2018-09-03T17:56:57.687Z,22.68
2018-09-03T17:58:49.630Z,22.67
2018-09-03T17:59:49.622Z,22.64
2018-09-03T18:01:41.554Z,22.60
2018-09-03T18:02:41.568Z,22.62
2018-09-03T18:04:33.521Z,22.59
2018-09-03T18:05:33.512Z,22.67
2018-09-03T18:07:25.438Z,22.65
2018-09-03T18:08:25.550Z,22.49
2018-09-03T18:10:17.402Z,22.53
2018-09-03T18:11:17.396Z,22.50
2018-09-03T18:13:09.387Z,22.52
2018-09-03T18:14:09.371Z,22.53
2018-09-03T18:16:01.298Z,22.50
2018-09-03T18:17:01.317Z,22.53
2018-09-03T18:18:53.256Z,22.52
2018-09-03T18:19:53.249Z,22.57
2018-09-03T18:21:45.262Z,22.54
2018-09-03T18:22:45.203Z,22.52
2018-09-03T18:24:37.638Z,22.53
2018-09-03T18:25:37.645Z,22.47
2018-09-03T18:27:29.558Z,22.53
2018-09-03T18:28:29.580Z,22.50
2018-09-03T18:30:21.657Z,22.52
2018-09-03T18:31:21.519Z,22.49
2018-09-03T18:33:13.442Z,22.57
2018-09-03T18:34:13.459Z,22.49
2018-09-03T18:36:05.461Z,22.47
2018-09-03T18:37:05.413Z,22.47
2018-09-03T18:38:57.340Z,22.47
2018-09-03T18:39:57.339Z,22.47
2018-09-03T18:41:49.330Z,22.41
2018-09-03T18:42:49.289Z,22.39
2018-09-03T18:44:41.238Z,22.38
2018-09-03T18:45:41.227Z,22.38
2018-09-03T18:47:33.279Z,22.32
2018-09-03T18:48:33.171Z,22.34
2018-09-03T18:50:25.107Z,22.20
2018-09-03T18:51:25.107Z,22.16
2018-09-03T18:53:17.048Z,22.13
2018-09-03T18:54:17.043Z,22.07
2018-09-03T18:56:08.984Z,22.12
2018-09-03T18:57:08.985Z,21.97